Time;durP1;ratioP1;P1;durP2;ratioP2;P2;SDS_P1;SDS_P2;PMS_P1;PMS_P2;Temp;Humidity;BMP_temperature;BMP_pressure;BME280_temperature;BME280_humidity;BME280_pressure;Samples;Min_cycle;Max_cycle;Signal;HPM_P1;HPM_P2
2024/01/24 00:01:20;;;;;;;30.92;4.90;;;;;;;3.13;93.41;100980.13;6263370;23;20012;-71
2024/01/24 00:03:47;;;;;;;26.20;4.38;;;;;;;3.17;93.11;100972.78;6270553;23;20008;-72
2024/01/24 00:06:13;;;;;;;28.85;4.70;;;;;;;3.23;93.22;100951.00;6269893;23;20023;-72
2024/01/24 00:08:40;;;;;;;27.08;4.38;;;;;;;3.24;93.56;100944.69;6271690;22;20032;-72
2024/01/24 00:11:07;;;;;;;19.98;4.18;;;;;;;3.19;94.02;100933.38;6270823;22;20054;-72
2024/01/24 00:13:33;;;;;;;37.80;4.82;;;;;;;3.20;94.26;100917.22;6270760;23;20035;-73
2024/01/24 00:16:00;;;;;;;24.20;4.22;;;;;;;3.25;94.76;100907.09;6271761;22;20448;-72
2024/01/24 00:18:26;;;;;;;25.08;3.92;;;;;;;3.25;94.67;100898.19;6270805;22;20012;-72
2024/01/24 00:20:54;;;;;;;28.55;4.68;;;;;;;3.34;94.83;100892.31;6270314;22;20044;-72
2024/01/24 00:23:20;;;;;;;26.50;4.25;;;;;;;3.31;95.01;100872.88;6241041;23;20024;-72
2024/01/24 00:25:47;;;;;;;18.15;4.38;;;;;;;3.37;95.18;100861.78;6261981;23;20405;-72
2024/01/24 00:28:15;;;;;;;24.52;4.97;;;;;;;3.35;95.33;100859.19;6251752;23;20028;-72
2024/01/24 00:30:44;;;;;;;21.88;3.50;;;;;;;3.35;95.91;100853.81;6245335;23;20074;-71
2024/01/24 00:33:10;;;;;;;24.88;4.30;;;;;;;3.33;96.12;100866.47;6245231;22;20134;-71
2024/01/24 00:35:37;;;;;;;23.77;4.18;;;;;;;3.39;96.21;100852.72;6243921;23;20095;-71
2024/01/24 00:38:05;;;;;;;25.80;4.10;;;;;;;3.36;96.68;100838.59;6243386;23;20079;-71
2024/01/24 00:40:32;;;;;;;24.52;4.20;;;;;;;3.38;96.67;100820.63;6244232;23;20520;-71
2024/01/24 00:42:58;;;;;;;25.30;4.68;;;;;;;3.41;96.99;100802.53;6243495;23;20079;-71
2024/01/24 00:45:25;;;;;;;17.70;3.30;;;;;;;3.43;96.96;100794.41;6243586;23;20024;-71
2024/01/24 00:47:53;;;;;;;19.92;4.05;;;;;;;3.52;96.75;100796.56;6243545;23;20028;-71
2024/01/24 00:50:19;;;;;;;18.75;3.40;;;;;;;3.53;97.04;100788.41;6243425;23;20028;-71
2024/01/24 00:52:51;;;;;;;22.77;4.43;;;;;;;3.61;96.57;100773.72;6243039;23;20020;-71
2024/01/24 00:55:18;;;;;;;20.48;3.67;;;;;;;3.67;96.53;100751.91;6243596;23;20028;-71
2024/01/24 00:57:46;;;;;;;20.38;3.97;;;;;;;3.65;96.79;100748.41;6243038;23;20024;-71
2024/01/24 01:00:13;;;;;;;14.90;3.30;;;;;;;3.66;96.58;100732.25;6244643;23;20035;-71
2024/01/24 01:02:39;;;;;;;24.05;4.18;;;;;;;3.72;96.82;100729.19;6244515;23;20020;-71
2024/01/24 01:05:07;;;;;;;20.33;4.05;;;;;;;3.74;97.13;100707.63;6243939;23;20093;-71
2024/01/24 01:07:34;;;;;;;23.00;3.85;;;;;;;3.76;97.01;100677.09;6244318;23;20027;-72
2024/01/24 01:10:00;;;;;;;14.55;3.53;;;;;;;3.80;97.04;100669.72;6245296;23;20028;-71
2024/01/24 01:12:27;;;;;;;17.52;3.33;;;;;;;3.85;96.80;100675.69;6246341;23;20027;-72
2024/01/24 01:14:54;;;;;;;18.52;3.50;;;;;;;3.88;96.95;100666.56;6247396;23;20085;-71
2024/01/24 01:17:20;;;;;;;22.25;3.65;;;;;;;3.94;97.20;100659.03;6224037;23;20020;-70
2024/01/24 01:19:47;;;;;;;13.60;3.10;;;;;;;3.99;96.88;100651.53;6251332;23;20020;-71
2024/01/24 01:22:13;;;;;;;10.35;2.92;;;;;;;4.06;96.77;100634.09;6247150;23;20024;-71
2024/01/24 01:24:41;;;;;;;14.07;3.05;;;;;;;4.06;96.92;100642.16;6244983;23;20409;-72
2024/01/24 01:27:08;;;;;;;17.80;2.88;;;;;;;4.09;96.98;100631.22;6243923;23;20589;-71
2024/01/24 01:29:35;;;;;;;9.02;2.30;;;;;;;4.17;96.87;100627.19;6249281;23;20024;-71
2024/01/24 01:32:02;;;;;;;19.77;2.90;;;;;;;4.23;96.77;100626.81;6251862;23;20028;-72
2024/01/24 01:34:29;;;;;;;10.43;2.92;;;;;;;4.22;97.18;100611.66;6250771;22;20016;-72
2024/01/24 01:36:55;;;;;;;8.68;2.25;;;;;;;4.27;96.97;100602.34;6225729;23;20024;-72
2024/01/24 01:39:22;;;;;;;9.75;2.55;;;;;;;4.31;97.01;100592.28;6251294;23;20027;-72
2024/01/24 01:41:49;;;;;;;11.18;2.38;;;;;;;4.33;97.03;100590.34;6247946;23;20530;-72
2024/01/24 01:44:15;;;;;;;12.10;2.63;;;;;;;4.39;96.95;100584.56;6245269;23;20028;-72
2024/01/24 01:46:44;;;;;;;14.18;3.15;;;;;;;4.39;97.00;100571.13;6242893;23;20070;-72
2024/01/24 01:49:12;;;;;;;10.20;2.72;;;;;;;4.36;97.40;100563.28;6242702;23;20083;-72
2024/01/24 01:51:39;;;;;;;8.05;2.47;;;;;;;4.39;96.98;100560.41;6243119;23;20506;-72
2024/01/24 01:54:08;;;;;;;8.48;2.42;;;;;;;4.36;97.31;100542.66;6247077;23;20035;-72
2024/01/24 01:56:36;;;;;;;9.63;2.50;;;;;;;4.43;96.97;100556.56;6244322;23;20040;-72
2024/01/24 01:59:02;;;;;;;7.88;2.42;;;;;;;4.42;97.26;100549.47;6244335;23;20122;-72
2024/01/24 02:01:29;;;;;;;6.57;2.25;;;;;;;4.42;97.47;100546.78;6244605;23;20024;-72
2024/01/24 02:03:56;;;;;;;11.63;2.75;;;;;;;4.46;97.08;100529.50;6243559;23;20108;-72
2024/01/24 02:13:57;;;;;;;8.57;2.20;;;;;;;4.61;96.81;100487.34;6240737;23;20023;-72
2024/01/24 02:16:23;;;;;;;6.53;2.60;;;;;;;4.53;97.21;100495.03;6242150;23;20088;-72
2024/01/24 02:18:50;;;;;;;10.63;2.42;;;;;;;4.54;97.55;100488.72;6241871;23;20071;-72
2024/01/24 02:21:17;;;;;;;8.35;2.10;;;;;;;4.50;97.89;100489.91;6242195;23;20020;-73
2024/01/24 02:23:45;;;;;;;7.13;2.42;;;;;;;4.51;98.09;100487.09;6241060;23;20074;-72
2024/01/24 02:26:11;;;;;;;13.40;3.13;;;;;;;4.60;97.99;100494.53;6242071;23;20076;-72
2024/01/24 02:28:38;;;;;;;10.25;3.05;;;;;;;4.69;97.43;100490.38;6242454;23;20022;-73
2024/01/24 02:31:04;;;;;;;11.20;3.40;;;;;;;4.67;97.46;100465.41;6241299;23;20047;-73
2024/01/24 02:33:31;;;;;;;9.10;2.90;;;;;;;4.69;97.48;100461.69;6241279;22;20378;-73
2024/01/24 02:35:57;;;;;;;10.68;3.00;;;;;;;4.70;97.35;100455.34;6240946;23;20103;-73
2024/01/24 02:38:24;;;;;;;6.13;2.75;;;;;;;4.70;97.63;100458.03;6241947;23;20455;-73
2024/01/24 02:40:51;;;;;;;7.50;2.65;;;;;;;4.84;97.25;100446.31;6241163;23;20074;-73
2024/01/24 02:43:17;;;;;;;8.43;3.45;;;;;;;4.86;97.37;100448.91;6241820;23;20036;-73
2024/01/24 02:45:44;;;;;;;9.02;3.22;;;;;;;4.94;97.02;100436.69;6239810;23;20088;-73
2024/01/24 02:48:10;;;;;;;10.50;2.80;;;;;;;4.96;97.05;100428.53;6242807;23;20104;-72
2024/01/24 02:50:37;;;;;;;9.50;3.15;;;;;;;4.95;97.19;100413.34;6241608;23;20020;-72
2024/01/24 02:53:04;;;;;;;10.57;3.28;;;;;;;5.03;96.75;100402.94;6215080;23;20039;-72
2024/01/24 02:55:30;;;;;;;8.68;3.25;;;;;;;5.05;96.90;100403.72;6215246;23;20024;-72
2024/01/24 02:57:57;;;;;;;7.32;2.63;;;;;;;5.08;97.00;100408.00;6240483;23;20028;-72
2024/01/24 03:00:24;;;;;;;8.40;2.90;;;;;;;5.13;96.53;100382.50;6240066;23;20020;-72
2024/01/24 03:02:50;;;;;;;9.68;2.85;;;;;;;5.10;96.94;100385.41;6240917;23;20455;-72
2024/01/24 03:05:17;;;;;;;6.78;2.15;;;;;;;5.20;96.95;100381.09;6240534;23;20024;-72
2024/01/24 03:07:44;;;;;;;4.35;2.40;;;;;;;5.23;96.58;100388.06;6241482;23;20020;-72
2024/01/24 03:10:11;;;;;;;7.72;2.88;;;;;;;5.24;96.59;100390.69;6241296;23;20435;-72
2024/01/24 03:12:38;;;;;;;7.85;2.67;;;;;;;5.28;96.41;100380.53;6242476;23;20028;-72
2024/01/24 03:15:06;;;;;;;4.07;2.20;;;;;;;5.34;96.23;100380.13;6213334;23;20036;-72
2024/01/24 03:17:32;;;;;;;12.10;2.60;;;;;;;5.35;96.40;100370.22;6240825;23;20128;-72
2024/01/24 03:19:59;;;;;;;8.52;2.45;;;;;;;5.42;95.83;100371.47;6216162;23;20102;-71
2024/01/24 03:22:26;;;;;;;6.30;2.30;;;;;;;5.47;95.82;100377.38;6215814;23;20020;-71
2024/01/24 03:24:53;;;;;;;11.07;2.63;;;;;;;5.46;95.71;100389.13;6215689;23;20521;-71
2024/01/24 03:27:19;;;;;;;9.10;3.03;;;;;;;5.41;96.17;100381.38;6242186;23;20043;-71
2024/01/24 03:29:46;;;;;;;10.95;2.78;;;;;;;5.41;96.36;100384.06;6241839;23;20016;-71
2024/01/24 03:32:12;;;;;;;7.65;2.47;;;;;;;5.50;95.93;100367.25;6241987;23;20016;-71
2024/01/24 03:34:39;;;;;;;9.95;2.80;;;;;;;5.54;95.53;100370.59;6242387;22;20020;-71
2024/01/24 03:37:06;;;;;;;10.25;2.95;;;;;;;5.55;95.67;100375.88;6241514;23;20094;-71
2024/01/24 03:39:33;;;;;;;13.23;2.65;;;;;;;5.56;95.65;100360.56;6241700;23;20107;-71
2024/01/24 03:41:59;;;;;;;13.93;2.95;;;;;;;5.61;95.55;100354.84;6242140;23;20028;-72
2024/01/24 03:44:26;;;;;;;8.15;2.58;;;;;;;5.66;95.38;100352.69;6243422;23;20479;-72
2024/01/24 03:46:52;;;;;;;9.60;3.10;;;;;;;5.68;95.06;100351.59;6243878;23;20020;-73
2024/01/24 03:49:21;;;;;;;9.80;2.50;;;;;;;5.67;95.64;100357.94;6244964;23;20090;-73
2024/01/24 03:51:48;;;;;;;7.63;2.25;;;;;;;5.74;95.31;100339.53;6242879;23;20467;-73
2024/01/24 03:54:15;;;;;;;12.48;2.65;;;;;;;5.67;96.05;100339.13;6243663;23;20023;-72
2024/01/24 03:56:42;;;;;;;15.80;2.50;;;;;;;5.67;95.81;100339.13;6245559;23;20020;-73
2024/01/24 03:59:08;;;;;;;6.13;2.42;;;;;;;5.88;94.95;100335.78;6245634;23;20046;-71
2024/01/24 04:01:35;;;;;;;10.32;2.70;;;;;;;5.80;95.09;100329.19;6244218;23;20031;-73
2024/01/24 04:04:02;;;;;;;6.35;1.90;;;;;;;5.81;95.33;100327.34;6244938;23;20016;-73
2024/01/24 04:06:29;;;;;;;9.07;2.40;;;;;;;5.85;95.47;100302.75;6245133;23;20024;-71
2024/01/24 04:08:55;;;;;;;8.32;2.22;;;;;;;5.85;95.71;100288.44;6245584;23;20016;-73
2024/01/24 04:11:22;;;;;;;10.45;2.30;;;;;;;5.92;95.67;100294.22;6221022;23;20055;-72
2024/01/24 04:13:56;;;;;;;10.27;2.10;;;;;;;5.89;96.21;100289.94;6248059;23;20027;-73
2024/01/24 04:16:23;;;;;;;9.57;2.22;;;;;;;5.95;96.12;100294.84;6248486;23;20025;-73
2024/01/24 04:18:52;;;;;;;7.65;2.08;;;;;;;6.03;95.60;100275.41;6249314;23;20059;-73
2024/01/24 04:21:19;;;;;;;12.38;2.20;;;;;;;6.02;96.08;100274.56;6224624;23;20119;-73
2024/01/24 04:23:46;;;;;;;10.35;1.90;;;;;;;6.02;96.44;100271.88;6254142;23;20020;-72
2024/01/24 04:26:12;;;;;;;8.02;1.95;;;;;;;6.19;95.66;100273.28;6252386;23;20454;-71
2024/01/24 04:28:39;;;;;;;9.77;2.28;;;;;;;6.22;95.62;100238.03;6253518;23;20016;-70
2024/01/24 04:34:52;;;;;;;13.50;2.45;;;;;;;6.25;96.12;100240.47;6262776;22;20465;-73
2024/01/24 04:37:23;;;;;;;6.80;2.25;;;;;;;6.28;96.27;100248.31;6259107;23;20020;-72
2024/01/24 04:39:52;;;;;;;7.68;2.00;;;;;;;6.38;95.68;100238.53;6258441;23;20043;-72
2024/01/24 04:42:18;;;;;;;8.40;2.25;;;;;;;6.43;95.75;100251.63;6258843;23;20078;-72
2024/01/24 04:44:45;;;;;;;6.97;1.77;;;;;;;6.42;96.02;100239.16;6261844;23;20076;-72
2024/01/24 04:47:15;;;;;;;8.35;2.67;;;;;;;6.56;95.36;100236.22;6266787;23;20055;-73
2024/01/24 04:49:42;;;;;;;6.20;1.73;;;;;;;6.65;95.00;100240.91;6267468;23;20040;-71
2024/01/24 04:52:12;;;;;;;7.32;2.13;;;;;;;6.72;94.83;100235.84;6266855;23;20407;-72
2024/01/24 04:54:38;;;;;;;9.65;1.67;;;;;;;6.72;95.14;100225.06;6267443;23;20039;-71
2024/01/24 04:57:05;;;;;;;11.40;2.60;;;;;;;6.77;94.87;100220.19;6265872;23;20051;-70
2024/01/24 04:59:32;;;;;;;8.85;2.60;;;;;;;6.84;94.53;100210.63;6266249;23;20079;-71
2024/01/24 05:02:15;;;;;;;22.52;2.75;;;;;;;6.82;94.99;100207.19;6266342;23;20020;-71
2024/01/24 05:04:42;;;;;;;7.00;2.15;;;;;;;6.90;94.77;100202.00;6267523;23;20067;-72
2024/01/24 05:07:09;;;;;;;12.02;2.25;;;;;;;6.98;94.35;100214.88;6268052;23;20044;-71
2024/01/24 05:09:36;;;;;;;8.77;2.03;;;;;;;7.08;93.92;100220.38;6266964;23;20040;-71
2024/01/24 05:12:03;;;;;;;13.55;1.95;;;;;;;7.12;93.61;100201.13;6267340;23;20035;-72
2024/01/24 05:14:29;;;;;;;10.48;2.03;;;;;;;7.04;94.77;100189.25;6267461;23;20042;-71
2024/01/24 05:16:56;;;;;;;13.02;2.53;;;;;;;7.12;94.42;100200.28;6238484;23;20024;-71
2024/01/24 05:19:22;;;;;;;5.90;2.13;;;;;;;7.19;94.30;100206.88;6237430;23;20047;-71
2024/01/24 05:21:49;;;;;;;7.63;1.63;;;;;;;7.23;93.88;100208.34;6263352;23;20024;-71
2024/01/24 05:24:16;;;;;;;18.83;2.05;;;;;;;7.27;93.49;100199.00;6263886;23;20022;-71
2024/01/24 05:26:45;;;;;;;6.93;1.60;;;;;;;7.31;93.63;100210.41;6262862;23;20024;-72
2024/01/24 05:29:12;;;;;;;13.13;2.17;;;;;;;7.35;93.46;100195.69;6237988;23;20024;-71
2024/01/24 05:31:39;;;;;;;7.07;1.70;;;;;;;7.29;94.48;100175.47;6265970;23;20039;-70
2024/01/24 05:34:08;;;;;;;8.63;2.28;;;;;;;7.29;94.43;100175.47;6244499;22;20090;-71
2024/01/24 05:36:35;;;;;;;6.68;2.33;;;;;;;7.33;94.13;100171.53;6292027;22;20023;-71
2024/01/24 05:39:06;;;;;;;5.75;1.33;;;;;;;7.43;93.95;100183.28;6292185;22;20031;-70
2024/01/24 05:41:35;;;;;;;4.10;1.58;;;;;;;7.38;94.37;100173.88;6291796;22;20023;-70
2024/01/24 05:44:02;;;;;;;4.90;1.55;;;;;;;7.40;94.55;100171.91;6291774;22;20043;-70
2024/01/24 05:46:28;;;;;;;5.97;1.70;;;;;;;7.45;94.66;100170.50;6265543;22;20024;-70
2024/01/24 05:48:56;;;;;;;5.80;1.85;;;;;;;7.54;93.85;100156.25;6292847;22;20078;-71
2024/01/24 05:51:23;;;;;;;6.60;1.98;;;;;;;7.56;93.45;100156.09;6292287;22;20024;-70
2024/01/24 05:53:49;;;;;;;11.93;2.28;;;;;;;7.60;93.46;100159.41;6292782;22;20020;-71
2024/01/24 05:56:16;;;;;;;5.88;1.23;;;;;;;7.61;93.53;100150.34;6293011;22;20031;-71
2024/01/24 05:58:42;;;;;;;5.00;1.58;;;;;;;7.69;93.22;100150.53;6292563;22;20016;-72
2024/01/24 06:01:09;;;;;;;8.57;1.70;;;;;;;7.76;92.94;100157.13;6292780;22;20019;-71
2024/01/24 06:03:37;;;;;;;7.65;1.75;;;;;;;7.77;93.37;100158.84;6293638;22;20024;-71
2024/01/24 06:06:05;;;;;;;6.30;1.50;;;;;;;7.73;94.55;100136.63;6292609;22;20304;-70
2024/01/24 06:08:32;;;;;;;5.88;1.45;;;;;;;7.73;94.83;100135.78;6291638;22;20034;-70
2024/01/24 06:10:59;;;;;;;5.35;1.50;;;;;;;7.69;95.04;100137.03;6290500;22;20020;-71
2024/01/24 06:13:27;;;;;;;4.30;1.25;;;;;;;7.76;94.86;100125.59;6269990;22;20058;-72
2024/01/24 06:15:54;;;;;;;10.88;1.70;;;;;;;7.70;95.41;100126.13;6294078;22;20028;-72
2024/01/24 06:18:21;;;;;;;4.45;1.60;;;;;;;7.69;95.32;100140.59;6291590;22;20035;-71
2024/01/24 06:20:48;;;;;;;7.22;2.13;;;;;;;7.73;95.02;100111.50;6293985;22;20019;-72
2024/01/24 06:23:15;;;;;;;5.60;1.58;;;;;;;7.67;95.77;100134.47;6295132;22;20504;-72
2024/01/24 06:25:42;;;;;;;4.63;1.55;;;;;;;7.67;95.69;100163.31;6295246;22;20023;-72
2024/01/24 06:28:09;;;;;;;4.55;1.52;;;;;;;7.74;95.46;100146.44;6293898;22;20024;-72
2024/01/24 06:30:35;;;;;;;5.68;1.50;;;;;;;7.76;95.48;100131.00;6267996;22;20076;-72
2024/01/24 06:33:02;;;;;;;10.65;2.42;;;;;;;7.78;95.34;100128.16;6294893;22;20028;-72
2024/01/24 06:35:31;;;;;;;6.95;1.88;;;;;;;7.84;94.92;100124.91;6268507;22;20020;-72
2024/01/24 06:37:57;;;;;;;6.57;1.70;;;;;;;7.88;94.74;100112.88;6262709;23;20024;-71
2024/01/24 06:40:24;;;;;;;5.38;1.70;;;;;;;7.91;94.57;100114.44;6262320;23;20395;-72
2024/01/24 06:42:51;;;;;;;2.75;1.20;;;;;;;7.89;94.79;100108.31;6262142;23;20079;-72
2024/01/24 06:45:18;;;;;;;5.72;1.27;;;;;;;7.91;94.90;100122.53;6261809;23;20035;-72
2024/01/24 06:47:45;;;;;;;8.77;1.52;;;;;;;7.96;94.43;100126.56;6260053;23;20020;-72
2024/01/24 06:50:13;;;;;;;9.55;1.60;;;;;;;8.00;94.50;100122.59;6262939;23;20016;-72
2024/01/24 06:52:40;;;;;;;3.72;1.35;;;;;;;8.04;94.29;100134.88;6260749;23;20030;-72
2024/01/24 06:55:08;;;;;;;5.03;1.52;;;;;;;8.08;94.49;100140.84;6262047;23;20039;-72
2024/01/24 06:57:35;;;;;;;7.40;1.40;;;;;;;8.06;94.44;100143.69;6235497;23;20028;-72
2024/01/24 07:00:04;;;;;;;5.00;1.25;;;;;;;8.10;94.68;100138.84;6263065;23;20363;-71
2024/01/24 07:02:32;;;;;;;4.22;1.65;;;;;;;8.07;94.93;100150.78;6260820;23;20043;-71
2024/01/24 07:04:58;;;;;;;7.78;1.38;;;;;;;8.09;94.62;100154.22;6255570;23;20050;-72
2024/01/24 07:07:25;;;;;;;4.28;0.95;;;;;;;8.18;93.86;100163.34;6243400;23;20336;-72
2024/01/24 07:09:52;;;;;;;5.38;1.00;;;;;;;8.21;93.95;100248.69;6216216;23;20026;-71
2024/01/24 07:12:20;;;;;;;3.10;1.20;;;;;;;8.23;94.15;100246.72;6215400;23;20024;-71
2024/01/24 07:14:48;;;;;;;4.35;1.15;;;;;;;8.17;93.86;100252.66;6214716;23;20016;-72
2024/01/24 07:17:18;;;;;;;5.65;1.38;;;;;;;8.12;93.90;100262.03;6241156;23;20044;-73
2024/01/24 07:19:45;;;;;;;5.15;1.02;;;;;;;8.11;94.09;100270.22;6242075;23;20402;-71
2024/01/24 07:22:11;;;;;;;5.15;1.00;;;;;;;8.08;94.53;100246.19;6242117;23;20052;-71
2024/01/24 07:24:44;;;;;;;7.68;1.13;;;;;;;8.07;94.22;100253.44;6241798;23;20032;-73
2024/01/24 07:27:11;;;;;;;4.88;1.27;;;;;;;7.98;94.76;100262.31;6242001;23;20413;-72
2024/01/24 07:29:38;;;;;;;12.75;2.15;;;;;;;7.94;94.34;100260.88;6241421;23;20103;-74
2024/01/24 07:32:05;;;;;;;17.48;1.85;;;;;;;7.96;94.23;100260.75;6241291;23;20059;-75
2024/01/24 07:34:32;;;;;;;12.88;2.20;;;;;;;7.94;94.29;100258.19;6241359;22;20079;-74
2024/01/24 07:36:58;;;;;;;13.35;2.35;;;;;;;7.97;93.70;100225.50;6241113;23;20030;-74
2024/01/24 07:39:25;;;;;;;13.93;2.28;;;;;;;7.82;94.62;100238.44;6241127;23;20016;-75
2024/01/24 07:41:52;;;;;;;18.30;2.60;;;;;;;7.88;94.15;100231.69;6241168;23;20463;-75
2024/01/24 07:44:19;;;;;;;16.55;2.10;;;;;;;7.91;93.76;100226.00;6241750;23;20387;-74
2024/01/24 07:46:46;;;;;;;26.30;3.47;;;;;;;7.88;93.72;100226.28;6240667;23;20020;-74
2024/01/24 07:49:13;;;;;;;24.17;4.65;;;;;;;7.83;93.95;100233.91;6242344;23;20027;-75
2024/01/24 07:51:45;;;;;;;12.65;3.28;;;;;;;7.87;93.72;100229.97;6242387;23;20423;-75
2024/01/24 07:54:12;;;;;;;22.15;3.42;;;;;;;7.92;93.04;100232.28;6242161;23;20055;-75
2024/01/24 07:56:39;;;;;;;16.48;2.72;;;;;;;7.89;93.43;100233.41;6242081;23;20466;-74
2024/01/24 07:59:08;;;;;;;26.90;3.25;;;;;;;7.88;93.40;100234.38;6242338;23;20099;-75
2024/01/24 08:01:35;;;;;;;17.65;2.78;;;;;;;7.94;93.08;100235.72;6242510;23;20470;-74
2024/01/24 08:04:03;;;;;;;21.58;3.42;;;;;;;7.86;93.62;100239.06;6242541;23;20107;-74
2024/01/24 08:06:30;;;;;;;19.60;3.20;;;;;;;7.90;93.47;100240.50;6241612;23;20020;-74
2024/01/24 08:08:56;;;;;;;25.65;4.32;;;;;;;7.93;93.41;100245.63;6243780;23;20026;-74
2024/01/24 08:11:24;;;;;;;19.83;3.78;;;;;;;7.89;93.56;100244.19;6244455;23;20027;-74
2024/01/24 08:13:51;;;;;;;16.60;2.85;;;;;;;7.87;93.61;100250.72;6217534;23;20020;-74
2024/01/24 08:16:18;;;;;;;21.00;3.50;;;;;;;7.84;93.78;100257.22;6243781;23;20016;-74
2024/01/24 08:18:45;;;;;;;17.15;2.88;;;;;;;7.92;93.42;100246.63;6245049;23;20020;-73
2024/01/24 08:21:13;;;;;;;20.70;3.30;;;;;;;7.92;93.53;100257.44;6244435;23;20355;-73
2024/01/24 08:23:40;;;;;;;22.80;3.03;;;;;;;7.91;93.11;100250.31;6243130;23;20024;-73
2024/01/24 08:26:16;;;;;;;23.75;4.07;;;;;;;7.91;92.66;100242.22;6244196;23;20074;-73
2024/01/24 08:28:43;;;;;;;27.08;2.72;;;;;;;7.99;92.20;100233.47;6243355;23;20349;-74
2024/01/24 08:31:10;;;;;;;24.88;3.10;;;;;;;7.95;92.38;100238.28;6216647;23;20070;-74
2024/01/24 08:33:38;;;;;;;27.25;3.65;;;;;;;8.01;91.55;100229.63;6243083;22;20024;-74
2024/01/24 08:36:05;;;;;;;21.95;3.05;;;;;;;8.03;91.39;100225.00;6224865;23;20024;-74
2024/01/24 08:38:32;;;;;;;13.90;2.55;;;;;;;8.15;90.39;100225.78;6255258;23;20024;-73
2024/01/24 08:40:58;;;;;;;18.33;3.45;;;;;;;8.29;90.17;100228.13;6246325;23;20160;-73
2024/01/24 08:43:26;;;;;;;28.42;3.47;;;;;;;8.29;90.27;100232.66;6217188;23;20031;-72
2024/01/24 08:45:52;;;;;;;16.58;3.17;;;;;;;8.33;89.98;100253.03;6243007;23;20028;-72
2024/01/24 08:48:21;;;;;;;24.95;3.22;;;;;;;8.40;88.99;100262.34;6242715;23;20016;-72
2024/01/24 08:50:48;;;;;;;16.05;3.08;;;;;;;8.38;89.22;100283.22;6242783;23;20074;-73
2024/01/24 08:53:15;;;;;;;22.55;3.25;;;;;;;8.34;90.33;100303.41;6243493;23;20023;-72
2024/01/24 08:55:41;;;;;;;23.27;3.35;;;;;;;8.34;88.50;100312.38;6216698;23;20020;-72
2024/01/24 08:58:09;;;;;;;15.05;3.10;;;;;;;8.14;87.81;100362.69;6242730;23;20020;-73
2024/01/24 09:00:36;;;;;;;22.83;3.30;;;;;;;8.09;87.34;100342.44;6241915;23;21431;-73
2024/01/24 09:03:03;;;;;;;21.40;3.88;;;;;;;7.99;86.61;100355.00;6242800;23;20035;-73
2024/01/24 09:05:30;;;;;;;21.27;2.80;;;;;;;7.84;88.47;100366.09;6219179;23;20016;-73
2024/01/24 09:07:58;;;;;;;20.35;2.92;;;;;;;7.74;87.06;100367.81;6256685;23;20016;-75
2024/01/24 09:10:25;;;;;;;15.98;3.10;;;;;;;7.65;87.38;100359.63;6243690;23;20398;-75
2024/01/24 09:12:52;;;;;;;18.15;3.00;;;;;;;7.65;86.80;100343.44;6243531;23;20099;-75
2024/01/24 09:15:18;;;;;;;22.70;3.22;;;;;;;7.66;87.60;100353.28;6243225;23;20051;-75
2024/01/24 09:17:45;;;;;;;22.17;3.30;;;;;;;7.67;85.07;100374.72;6244220;23;20020;-74
2024/01/24 09:20:12;;;;;;;18.95;3.45;;;;;;;7.61;83.99;100352.78;6243760;23;20090;-74
2024/01/24 09:22:39;;;;;;;22.92;3.35;;;;;;;7.57;83.41;100339.53;6243988;23;20027;-74
2024/01/24 09:25:06;;;;;;;15.52;2.80;;;;;;;7.52;85.43;100319.28;6242757;23;20024;-74
2024/01/24 09:27:35;;;;;;;17.98;3.65;;;;;;;7.53;85.05;100324.56;6242644;23;20480;-74
2024/01/24 09:30:03;;;;;;;20.23;3.75;;;;;;;7.64;85.58;100330.91;6243456;23;20026;-73
2024/01/24 09:32:30;;;;;;;20.25;4.10;;;;;;;7.77;84.43;100331.63;6243794;23;20405;-74
2024/01/24 09:34:57;;;;;;;18.13;2.92;;;;;;;7.86;84.27;100341.69;6242719;22;20131;-72
2024/01/24 09:37:24;;;;;;;20.73;3.20;;;;;;;7.96;83.39;100357.97;6242937;23;20011;-72
2024/01/24 09:39:52;;;;;;;20.75;3.15;;;;;;;8.06;83.37;100367.88;6241608;23;20024;-71
2024/01/24 09:42:25;;;;;;;28.65;4.03;;;;;;;8.08;83.80;100347.00;6243277;23;20481;-72
2024/01/24 09:44:53;;;;;;;16.60;2.97;;;;;;;8.14;83.44;100346.47;6243219;23;20406;-72
2024/01/24 09:47:24;;;;;;;16.67;3.08;;;;;;;8.30;83.26;100355.97;6243140;23;20049;-72
2024/01/24 09:49:51;;;;;;;21.40;3.47;;;;;;;8.38;82.91;100358.88;6243362;23;20393;-72
2024/01/24 09:52:23;;;;;;;22.17;3.50;;;;;;;8.55;82.35;100352.91;6243293;23;20024;-72
2024/01/24 09:54:56;;;;;;;21.35;3.67;;;;;;;8.45;83.37;100354.69;6215839;23;20124;-73
2024/01/24 09:57:24;;;;;;;23.92;4.32;;;;;;;8.52;82.39;100345.06;6244771;23;20099;-74
2024/01/24 09:59:51;;;;;;;21.00;4.00;;;;;;;8.52;82.91;100358.59;6245758;23;20095;-74
2024/01/24 10:02:20;;;;;;;21.10;3.92;;;;;;;8.71;81.84;100356.00;6257989;23;20024;-74
2024/01/24 10:04:50;;;;;;;21.50;3.42;;;;;;;8.83;80.91;100345.13;6261866;23;20024;-72
2024/01/24 10:07:19;;;;;;;21.35;3.70;;;;;;;9.46;79.82;100345.88;6264742;23;20022;-71
2024/01/24 10:09:46;;;;;;;21.92;3.63;;;;;;;10.59;74.61;100340.84;6251996;23;20363;-71
2024/01/24 10:12:13;;;;;;;20.13;4.07;;;;;;;11.62;69.79;100346.22;6243521;23;20509;-71
2024/01/24 10:14:42;;;;;;;16.70;3.38;;;;;;;12.22;67.27;100353.91;6240347;23;20095;-72
2024/01/24 10:17:11;;;;;;;17.48;3.17;;;;;;;12.72;65.55;100346.00;6241989;23;20027;-70
2024/01/24 10:19:38;;;;;;;19.33;3.92;;;;;;;13.38;63.60;100339.09;6242663;23;20019;-71
2024/01/24 10:22:05;;;;;;;20.05;4.53;;;;;;;13.19;63.44;100346.47;6242449;23;20024;-71
2024/01/24 10:24:36;;;;;;;17.00;3.60;;;;;;;12.72;63.10;100367.78;6243382;23;20332;-72
2024/01/24 10:27:03;;;;;;;21.75;4.40;;;;;;;12.50;63.47;100358.25;6247852;23;20050;-72
2024/01/24 10:29:30;;;;;;;23.27;5.03;;;;;;;11.76;65.03;100337.59;6250917;23;20024;-71
2024/01/24 10:31:57;;;;;;;25.80;5.30;;;;;;;11.24;66.84;100364.41;6224964;23;20047;-71
2024/01/24 10:34:28;;;;;;;28.42;4.50;;;;;;;10.92;69.85;100362.09;6262917;22;20058;-72
2024/01/24 10:36:55;;;;;;;31.73;5.70;;;;;;;10.83;69.72;100357.56;6280565;22;20027;-71
2024/01/24 10:39:24;;;;;;;29.42;5.07;;;;;;;10.86;69.35;100342.81;6283589;22;20024;-71
2024/01/24 10:41:54;;;;;;;24.95;5.03;;;;;;;10.85;68.39;100347.41;6283932;22;20069;-71
2024/01/24 10:44:25;;;;;;;32.63;4.72;;;;;;;10.70;68.29;100367.81;6283399;22;20042;-70
2024/01/24 10:46:52;;;;;;;26.70;4.93;;;;;;;10.57;68.62;100361.84;6284521;22;20023;-70
2024/01/24 10:49:21;;;;;;;30.73;5.40;;;;;;;10.26;69.18;100375.56;6284961;22;20122;-70
2024/01/24 10:51:48;;;;;;;31.80;5.47;;;;;;;10.25;70.18;100364.81;6282826;22;20031;-72
2024/01/24 10:54:16;;;;;;;28.65;5.00;;;;;;;10.17;71.36;100368.28;6256097;22;20019;-70
2024/01/24 10:56:48;;;;;;;38.05;5.32;;;;;;;10.09;69.58;100373.53;6258268;22;20050;-69
2024/01/24 10:59:17;;;;;;;22.42;4.35;;;;;;;9.89;70.43;100377.19;6284736;22;20079;-69
2024/01/24 11:01:45;;;;;;;32.42;4.82;;;;;;;9.79;71.18;100369.03;6281904;22;20026;-69
2024/01/24 11:04:16;;;;;;;24.63;5.05;;;;;;;9.78;70.80;100384.44;6281424;22;20023;-69
2024/01/24 11:07:01;;;;;;;27.30;4.05;;;;;;;9.73;71.39;100396.69;6280192;22;20023;-69
2024/01/24 11:09:45;;;;;;;24.27;4.78;;;;;;;9.72;71.13;100390.44;6281623;22;20051;-68
2024/01/24 11:12:12;;;;;;;35.08;5.57;;;;;;;9.76;70.29;100391.84;6281786;22;20520;-69
2024/01/24 11:14:45;;;;;;;32.60;5.47;;;;;;;9.74;69.90;100403.81;6282609;22;20086;-68
2024/01/24 11:17:12;;;;;;;28.20;5.07;;;;;;;9.68;69.12;100410.63;6281835;22;20031;-68
2024/01/24 11:19:42;;;;;;;29.10;5.05;;;;;;;9.61;67.53;100398.66;6279563;22;20024;-69
2024/01/24 11:22:11;;;;;;;28.15;4.20;;;;;;;9.55;69.07;100399.19;6281071;22;20032;-67
2024/01/24 11:24:52;;;;;;;31.05;5.70;;;;;;;9.55;68.98;100412.75;6255274;22;20019;-69
2024/01/24 11:27:23;;;;;;;27.65;4.78;;;;;;;9.66;68.66;100422.59;6279861;22;20110;-68
2024/01/24 11:29:54;;;;;;;36.22;5.25;;;;;;;9.66;68.58;100407.22;6282128;22;20078;-70
2024/01/24 11:32:55;;;;;;;30.90;5.90;;;;;;;9.78;67.31;100419.66;6283257;22;20345;-68
2024/01/24 11:35:41;;;;;;;31.40;4.27;;;;;;;9.81;65.83;100416.69;6283223;22;20022;-68
2024/01/24 11:38:17;;;;;;;23.33;4.55;;;;;;;9.80;67.85;100425.81;6283470;22;20079;-67
2024/01/24 11:41:10;;;;;;;24.15;4.55;;;;;;;9.84;67.87;100410.13;6282364;22;20293;-67